sensor_id;sensor_type;location;lat;lon;timestamp;pressure;altitude;pressure_sealevel;temperature;humidity
50859;BME280;36826;47.514;19.056;2023-01-25T18:18:29;101269.06;;;6.42;100.00
50859;BME280;36826;47.514;19.056;2023-01-25T18:21:06;101260.19;;;7.07;100.00
50859;BME280;36826;47.514;19.056;2023-01-25T18:23:34;101276.25;;;7.22;99.48
50859;BME280;36826;47.514;19.056;2023-01-25T18:26:01;101268.50;;;6.85;98.83
50859;BME280;36826;47.514;19.056;2023-01-25T18:28:30;101268.28;;;6.90;99.86
50859;BME280;36826;47.514;19.056;2023-01-25T18:30:59;101263.47;;;6.97;98.48
50859;BME280;36826;47.514;19.056;2023-01-25T18:33:24;101269.13;;;7.22;96.16
50859;BME280;36826;47.514;19.056;2023-01-25T18:35:50;101263.13;;;6.37;100.00
50859;BME280;36826;47.514;19.056;2023-01-25T18:38:16;101247.34;;;6.17;100.00
50859;BME280;36826;47.514;19.056;2023-01-25T18:40:42;101250.81;;;5.83;100.00
50859;BME280;36826;47.514;19.056;2023-01-25T18:43:11;101240.72;;;5.73;100.00
50859;BME280;36826;47.514;19.056;2023-01-25T18:45:38;101240.00;;;5.34;100.00
50859;BME280;36826;47.514;19.056;2023-01-25T18:48:05;101234.72;;;5.87;100.00
50859;BME280;36826;47.514;19.056;2023-01-25T18:50:32;101227.22;;;5.60;100.00
50859;BME280;36826;47.514;19.056;2023-01-25T18:52:58;101225.41;;;5.60;100.00
50859;BME280;36826;47.514;19.056;2023-01-25T18:55:23;101222.59;;;5.63;100.00
50859;BME280;36826;47.514;19.056;2023-01-25T18:57:49;101220.53;;;5.68;100.00
50859;BME280;36826;47.514;19.056;2023-01-25T19:00:15;101222.16;;;5.89;100.00
50859;BME280;36826;47.514;19.056;2023-01-25T19:02:43;101216.25;;;5.83;100.00
50859;BME280;36826;47.514;19.056;2023-01-25T19:05:09;101217.22;;;6.50;100.00
50859;BME280;36826;47.514;19.056;2023-01-25T19:07:35;101211.28;;;6.44;100.00
50859;BME280;36826;47.514;19.056;2023-01-25T19:10:02;101205.19;;;6.58;100.00
50859;BME280;36826;47.514;19.056;2023-01-25T19:12:30;101201.78;;;6.72;100.00
50859;BME280;36826;47.514;19.056;2023-01-25T19:14:56;101204.34;;;6.90;100.00
50859;BME280;36826;47.514;19.056;2023-01-25T19:17:23;101203.28;;;7.09;100.00
50859;BME280;36826;47.514;19.056;2023-01-25T19:19:49;101197.94;;;7.09;100.00
50859;BME280;36826;47.514;19.056;2023-01-25T19:22:14;101201.06;;;7.01;99.81
50859;BME280;36826;47.514;19.056;2023-01-25T19:24:41;101199.22;;;7.17;98.71
50859;BME280;36826;47.514;19.056;2023-01-25T19:27:06;101200.56;;;7.41;98.14
50859;BME280;36826;47.514;19.056;2023-01-25T19:29:32;101193.19;;;7.30;96.73
50859;BME280;36826;47.514;19.056;2023-01-25T19:31:58;101197.94;;;7.09;96.26
50859;BME280;36826;47.514;19.056;2023-01-25T19:34:23;101186.13;;;6.82;97.27
50859;BME280;36826;47.514;19.056;2023-01-25T19:36:50;101182.84;;;7.09;97.18
50859;BME280;36826;47.514;19.056;2023-01-25T19:39:20;101178.91;;;6.68;97.82
50859;BME280;36826;47.514;19.056;2023-01-25T19:41:52;101183.88;;;6.42;99.54
50859;BME280;36826;47.514;19.056;2023-01-25T19:44:18;101185.75;;;6.40;100.00
50859;BME280;36826;47.514;19.056;2023-01-25T19:46:45;101183.88;;;6.26;100.00
50859;BME280;36826;47.514;19.056;2023-01-25T19:49:11;101181.75;;;5.99;100.00
50859;BME280;36826;47.514;19.056;2023-01-25T19:51:39;101177.81;;;6.07;100.00
50859;BME280;36826;47.514;19.056;2023-01-25T19:54:10;101175.84;;;6.44;100.00
50859;BME280;36826;47.514;19.056;2023-01-25T19:56:38;101182.28;;;6.06;100.00
50859;BME280;36826;47.514;19.056;2023-01-25T19:59:07;101192.00;;;6.07;100.00
50859;BME280;36826;47.514;19.056;2023-01-25T20:01:34;101174.94;;;5.76;100.00
50859;BME280;36826;47.514;19.056;2023-01-25T20:04:01;101172.00;;;6.00;100.00
50859;BME280;36826;47.514;19.056;2023-01-25T20:06:29;101174.59;;;6.18;100.00
50859;BME280;36826;47.514;19.056;2023-01-25T20:08:54;101170.09;;;6.52;100.00
50859;BME280;36826;47.514;19.056;2023-01-25T20:11:23;101170.47;;;6.92;98.36
50859;BME280;36826;47.514;19.056;2023-01-25T20:13:51;101163.78;;;6.85;96.39
50859;BME280;36826;47.514;19.056;2023-01-25T20:16:18;101163.09;;;6.65;94.76
50859;BME280;36826;47.514;19.056;2023-01-25T20:18:46;101162.59;;;6.90;95.25
50859;BME280;36826;47.514;19.056;2023-01-25T20:21:17;101158.47;;;6.85;92.64
50859;BME280;36826;47.514;19.056;2023-01-25T20:23:46;101159.50;;;6.50;92.45
50859;BME280;36826;47.514;19.056;2023-01-25T20:26:17;101160.53;;;6.48;92.75
50859;BME280;36826;47.514;19.056;2023-01-25T20:28:45;101155.06;;;6.67;92.39
50859;BME280;36826;47.514;19.056;2023-01-25T20:33:44;101146.53;;;6.60;90.98
50859;BME280;36826;47.514;19.056;2023-01-25T20:36:10;101148.34;;;6.59;90.39
50859;BME280;36826;47.514;19.056;2023-01-25T20:38:36;101141.63;;;6.68;89.79
50859;BME280;36826;47.514;19.056;2023-01-25T20:41:03;101139.41;;;6.77;90.68
50859;BME280;36826;47.514;19.056;2023-01-25T20:43:29;101137.69;;;6.59;88.75
50859;BME280;36826;47.514;19.056;2023-01-25T20:45:58;101136.22;;;6.54;88.27
50859;BME280;36826;47.514;19.056;2023-01-25T20:48:25;101139.38;;;6.93;88.30
50859;BME280;36826;47.514;19.056;2023-01-25T20:50:51;101132.63;;;7.17;87.51
50859;BME280;36826;47.514;19.056;2023-01-25T20:53:17;101127.56;;;8.01;84.00
50859;BME280;36826;47.514;19.056;2023-01-25T20:55:43;101132.06;;;8.01;81.80
50859;BME280;36826;47.514;19.056;2023-01-25T20:58:09;101124.81;;;8.17;80.90
50859;BME280;36826;47.514;19.056;2023-01-25T21:00:37;101125.38;;;7.64;82.15
50859;BME280;36826;47.514;19.056;2023-01-25T21:03:02;101120.28;;;8.32;80.29
50859;BME280;36826;47.514;19.056;2023-01-25T21:05:28;101116.06;;;8.84;78.83
50859;BME280;36826;47.514;19.056;2023-01-25T21:07:54;101114.91;;;8.05;78.99
50859;BME280;36826;47.514;19.056;2023-01-25T21:10:19;101109.19;;;7.67;82.33
50859;BME280;36826;47.514;19.056;2023-01-25T21:12:45;101110.16;;;7.81;81.38
50859;BME280;36826;47.514;19.056;2023-01-25T21:15:10;101106.91;;;7.76;82.25
50859;BME280;36826;47.514;19.056;2023-01-25T21:17:37;101096.72;;;7.82;81.81
50859;BME280;36826;47.514;19.056;2023-01-25T21:20:05;101097.78;;;7.80;82.64
50859;BME280;36826;47.514;19.056;2023-01-25T21:22:32;101097.97;;;8.75;77.88
50859;BME280;36826;47.514;19.056;2023-01-25T21:24:58;101091.78;;;9.15;76.80
50859;BME280;36826;47.514;19.056;2023-01-25T21:27:23;101096.06;;;8.77;76.29
50859;BME280;36826;47.514;19.056;2023-01-25T21:29:54;101092.16;;;8.55;77.02
50859;BME280;36826;47.514;19.056;2023-01-25T21:32:25;101101.69;;;8.45;77.57
50859;BME280;36826;47.514;19.056;2023-01-25T21:34:52;101089.28;;;8.44;76.88
50859;BME280;36826;47.514;19.056;2023-01-25T21:37:18;101088.16;;;8.48;76.73
50859;BME280;36826;47.514;19.056;2023-01-25T21:39:43;101079.56;;;8.57;76.79
50859;BME280;36826;47.514;19.056;2023-01-25T21:42:09;101087.81;;;8.25;77.51
50859;BME280;36826;47.514;19.056;2023-01-25T21:44:34;101085.47;;;8.34;76.86
50859;BME280;36826;47.514;19.056;2023-01-25T21:47:18;101081.78;;;8.51;76.70
50859;BME280;36826;47.514;19.056;2023-01-25T21:49:44;101074.41;;;8.40;76.12
50859;BME280;36826;47.514;19.056;2023-01-25T21:52:28;101066.44;;;8.25;76.58
50859;BME280;36826;47.514;19.056;2023-01-25T21:54:53;101062.69;;;8.01;78.33
50859;BME280;36826;47.514;19.056;2023-01-25T21:57:19;101068.41;;;8.51;77.76
50859;BME280;36826;47.514;19.056;2023-01-25T21:59:47;101065.94;;;7.91;79.81
50859;BME280;36826;47.514;19.056;2023-01-25T22:02:13;101067.16;;;8.42;78.57
50859;BME280;36826;47.514;19.056;2023-01-25T22:04:39;101060.88;;;8.57;78.09
50859;BME280;36826;47.514;19.056;2023-01-25T22:07:06;101063.69;;;8.69;78.05
50859;BME280;36826;47.514;19.056;2023-01-25T22:09:33;101059.69;;;8.47;78.24
50859;BME280;36826;47.514;19.056;2023-01-25T22:11:58;101061.13;;;8.53;77.98
50859;BME280;36826;47.514;19.056;2023-01-25T22:14:24;101057.88;;;8.62;77.70
50859;BME280;36826;47.514;19.056;2023-01-25T22:16:50;101054.28;;;8.76;77.80
50859;BME280;36826;47.514;19.056;2023-01-25T22:19:16;101048.69;;;8.66;77.45
50859;BME280;36826;47.514;19.056;2023-01-25T22:21:42;101044.72;;;8.59;77.50
50859;BME280;36826;47.514;19.056;2023-01-25T22:24:10;101040.22;;;8.59;76.96
50859;BME280;36826;47.514;19.056;2023-01-25T22:29:11;101043.34;;;8.39;77.12
50859;BME280;36826;47.514;19.056;2023-01-25T22:31:37;101041.66;;;7.81;78.52
50859;BME280;36826;47.514;19.056;2023-01-25T22:34:03;101045.28;;;7.51;81.16
50859;BME280;36826;47.514;19.056;2023-01-25T22:36:29;101040.41;;;7.58;82.24
50859;BME280;36826;47.514;19.056;2023-01-25T22:38:55;101042.13;;;7.59;81.29
50859;BME280;36826;47.514;19.056;2023-01-25T22:41:23;101031.69;;;7.42;82.48
50859;BME280;36826;47.514;19.056;2023-01-25T22:43:49;101036.63;;;7.48;82.66
50859;BME280;36826;47.514;19.056;2023-01-25T22:46:18;101018.16;;;7.16;83.27
50859;BME280;36826;47.514;19.056;2023-01-25T22:48:44;101026.13;;;7.01;84.63
50859;BME280;36826;47.514;19.056;2023-01-25T22:51:17;101026.22;;;7.29;85.38
50859;BME280;36826;47.514;19.056;2023-01-25T22:53:43;101025.47;;;6.82;86.39
50859;BME280;36826;47.514;19.056;2023-01-25T22:56:27;101022.91;;;7.25;86.39
50859;BME280;36826;47.514;19.056;2023-01-25T22:58:54;101014.31;;;7.20;86.91
50859;BME280;36826;47.514;19.056;2023-01-25T23:01:22;101019.06;;;7.00;88.44
50859;BME280;36826;47.514;19.056;2023-01-25T23:03:48;101017.28;;;6.70;89.69
50859;BME280;36826;47.514;19.056;2023-01-25T23:06:18;101018.31;;;6.37;92.23
50859;BME280;36826;47.514;19.056;2023-01-25T23:08:45;101008.81;;;7.23;90.11
50859;BME280;36826;47.514;19.056;2023-01-25T23:11:17;101004.22;;;7.11;89.92
50859;BME280;36826;47.514;19.056;2023-01-25T23:13:43;101002.31;;;6.98;90.52
50859;BME280;36826;47.514;19.056;2023-01-25T23:16:28;101004.34;;;6.79;91.69
50859;BME280;36826;47.514;19.056;2023-01-25T23:18:55;100997.94;;;6.97;90.79
50859;BME280;36826;47.514;19.056;2023-01-25T23:21:24;101011.53;;;5.99;95.64
50859;BME280;36826;47.514;19.056;2023-01-25T23:23:52;100998.97;;;6.34;95.56
50859;BME280;36826;47.514;19.056;2023-01-25T23:26:18;101003.75;;;6.59;96.26
50859;BME280;36826;47.514;19.056;2023-01-25T23:28:52;100992.84;;;6.78;94.70
50859;BME280;36826;47.514;19.056;2023-01-25T23:31:19;100994.00;;;6.88;93.93
50859;BME280;36826;47.514;19.056;2023-01-25T23:33:52;100988.38;;;6.79;93.82
50859;BME280;36826;47.514;19.056;2023-01-25T23:36:21;100991.31;;;6.43;96.17
50859;BME280;36826;47.514;19.056;2023-01-25T23:38:47;100976.56;;;6.68;96.37
50859;BME280;36826;47.514;19.056;2023-01-25T23:41:14;100984.72;;;6.65;97.18
50859;BME280;36826;47.514;19.056;2023-01-25T23:43:40;100970.78;;;6.76;95.29
50859;BME280;36826;47.514;19.056;2023-01-25T23:46:07;100970.03;;;6.88;95.41
50859;BME280;36826;47.514;19.056;2023-01-25T23:48:34;100975.00;;;6.95;94.37
50859;BME280;36826;47.514;19.056;2023-01-25T23:50:59;100971.13;;;7.15;93.95
50859;BME280;36826;47.514;19.056;2023-01-25T23:53:27;100963.50;;;7.09;93.81
50859;BME280;36826;47.514;19.056;2023-01-25T23:55:58;100963.47;;;6.94;92.65
50859;BME280;36826;47.514;19.056;2023-01-25T23:58:25;100947.44;;;6.51;94.71
